Airfield :
LOGIN :

Register | Disclaimer

   EN    FR    IT 

 










Legend :    VFR   Marginal VFR   IFR   Intensive IFR   Very Intensive IFR
Visi :
Ceiling :
>= 8 km
>= 3000ft
5 to 8 km
1000 to 3000 ft
1500m to 5 km
500 to 1000 ft
800 to 1500m
200 to 500 ft
< 800m
< 200 ft
Symbols :   Thunderstorms  Fog  Heavy snow  Heavy precipitations  Wind > 20 kt
SIGMETs :     Misc.  Thunderstorms  Icing  Turbulence  Mountain Waves  Volcanic Ashes






- Airport Elevation : 14 ft
- IATA code : BRE


EDDW - Bremen Neuenland

CURRENT METAR :
  • 081550Z 12004KT 090V160 CAVOK 06/M07 Q1022 R88/190095 NOSIG

EXPIRED METARs :
  • 081520Z 14006KT 110V190 CAVOK 06/M07 Q1022 R88/190095 NOSIG
  • 081450Z 14006KT 080V190 CAVOK 06/M07 Q1022 R88/190095 NOSIG
  • 081420Z 12005KT 070V180 CAVOK 06/M07 Q1022 R88/190095 NOSIG
  • 081350Z 15006KT 120V200 CAVOK 06/M08 Q1023 R88/190095 NOSIG
  • 081320Z 16007KT 110V220 CAVOK 06/M07 Q1023 R88/190095 NOSIG

TAF TAF EDDW
Valid from the 08 at 12:00 until the 09 at 12:00 UTC


081100Z 0812/0912 13005KT CAVOK
BECMG 0900/0903 BKN014
TEMPO 0900/0908 2000 -SN BKN007
BECMG 0903/0905 13010KT
TEMPO 0908/0910 2500 -SNRA BKN007
BECMG 0910/0912 11005KT
TEMPO 0910/0912 3000 -RADZ BKN007



MET'MAP, your aeronautical weather chart ! - Copyright ORBIFLY December 2007 - Disclaimer

ORBIFLY MET'MAP TEAM :

Programming & Development : Alexandra Zaïnal
Concept & original design : Baudouin d'Aumeries
Assistance for programming : Marc-Olivier Méhu
Technical & hardware support : Manuel Goepfert

Contact : metmap@orbifly.com




SOURCES & CREDITS :

   NOAA